Time;durP1;ratioP1;P1;durP2;ratioP2;P2;SDS_P1;SDS_P2;PMS_P1;PMS_P2;Temp;Humidity;BMP_temperature;BMP_pressure;BME280_temperature;BME280_humidity;BME280_pressure;Samples;Min_cycle;Max_cycle;Signal;HPM_P1;HPM_P2
2023/01/17 00:01:09;;;;;;;18.60;17.48;;;4.20;99.90;;;;;;5116656;28;20050;-73
2023/01/17 00:11:54;;;;;;;17.52;16.63;;;3.90;99.90;;;;;;5117054;28;20062;-73
2023/01/17 00:14:20;;;;;;;18.23;17.33;;;3.90;99.90;;;;;;5116531;28;20043;-74
2023/01/17 00:16:46;;;;;;;19.35;18.35;;;4.00;99.90;;;;;;5116895;28;20485;-74
2023/01/17 01:33:46;;;;;;;13.20;12.18;;;4.70;99.90;;;;;;5119480;28;20093;-73
2023/01/17 01:36:14;;;;;;;14.88;13.45;;;4.40;99.90;;;;;;5119349;27;20035;-73
2023/01/17 01:38:39;;;;;;;13.43;11.50;;;4.40;99.90;;;;;;5119293;28;20035;-73
2023/01/17 01:41:05;;;;;;;13.32;12.35;;;4.30;99.90;;;;;;5119178;28;20032;-73
2023/01/17 01:43:52;;;;;;;12.45;11.60;;;4.30;99.90;;;;;;5118818;27;20043;-73
2023/01/17 01:46:34;;;;;;;;;;;4.20;99.90;;;;;;5119732;27;20082;-73
2023/01/17 01:49:01;;;;;;;11.18;7.70;;;4.00;99.90;;;;;;5118888;28;19954;-73
2023/01/17 01:51:59;;;;;;;8.32;7.70;;;4.00;99.90;;;;;;5119072;28;20047;-73
2023/01/17 01:54:31;;;;;;;7.65;5.82;;;4.10;99.90;;;;;;5114625;28;20044;-73
2023/01/17 01:57:00;;;;;;;7.50;6.63;;;4.20;99.90;;;;;;5118982;28;20043;-73
2023/01/17 01:59:26;;;;;;;11.77;6.93;;;4.20;99.90;;;;;;5118617;28;20341;-73
2023/01/17 02:01:56;;;;;;;9.85;8.82;;;4.20;99.90;;;;;;5118764;28;20050;-74
2023/01/17 02:04:26;;;;;;;16.25;8.60;;;4.30;99.90;;;;;;5118512;28;20036;-73
2023/01/17 02:07:01;;;;;;;12.30;8.90;;;4.40;99.90;;;;;;5118761;28;20035;-73
2023/01/17 02:09:27;;;;;;;16.33;10.57;;;4.30;99.90;;;;;;5118743;28;20040;-73
2023/01/17 02:11:53;;;;;;;13.23;10.07;;;4.30;99.90;;;;;;5118619;28;20306;-74
2023/01/17 02:14:21;;;;;;;10.63;9.57;;;4.30;99.90;;;;;;5117960;28;20050;-74
2023/01/17 02:16:55;;;;;;;11.60;10.38;;;4.40;99.90;;;;;;5118532;28;20397;-73
2023/01/17 02:19:20;;;;;;;12.45;9.07;;;4.30;99.90;;;;;;5118259;28;20035;-73
2023/01/17 02:22:24;;;;;;;19.95;11.50;;;4.10;99.90;;;;;;5118157;28;20482;-74
2023/01/17 02:25:10;;;;;;;10.80;9.85;;;4.20;99.90;;;;;;5117347;28;20339;-74
2023/01/17 02:27:39;;;;;;;14.88;10.55;;;4.30;99.90;;;;;;5118381;28;20036;-73
2023/01/17 02:30:31;;;;;;;11.55;10.10;;;4.30;99.90;;;;;;5118295;28;20044;-73
2023/01/17 02:33:26;;;;;;;14.02;7.20;;;4.30;99.90;;;;;;5118239;28;20048;-74
2023/01/17 02:36:06;;;;;;;12.18;6.75;;;4.30;99.90;;;;;;5118226;27;20040;-74
2023/01/17 02:38:50;;;;;;;12.05;6.53;;;4.30;99.90;;;;;;5118229;28;20035;-74
2023/01/17 02:41:21;;;;;;;10.98;5.97;;;4.40;99.90;;;;;;5118065;28;20039;-74
2023/01/17 02:43:49;;;;;;;15.02;7.28;;;4.50;99.90;;;;;;5116597;28;20429;-74
2023/01/17 02:46:15;;;;;;;12.23;7.30;;;4.60;99.90;;;;;;5118006;28;20092;-74
2023/01/17 02:48:42;;;;;;;12.27;7.90;;;4.60;99.90;;;;;;5116948;28;20031;-74
2023/01/17 02:51:49;;;;;;;9.35;6.40;;;4.70;99.90;;;;;;5117671;28;20420;-74
2023/01/17 02:54:37;;;;;;;;;;;4.70;99.90;;;;;;5118148;28;20366;-74
2023/01/17 02:57:09;;;;;;;15.90;6.30;;;4.60;99.90;;;;;;5117887;28;19919;-74
2023/01/17 03:00:02;;;;;;;18.85;7.00;;;4.60;99.90;;;;;;5117728;28;20046;-74
2023/01/17 03:02:50;;;;;;;14.63;7.60;;;4.80;99.90;;;;;;5117670;28;20325;-74
2023/01/17 03:05:28;;;;;;;11.82;6.40;;;4.90;99.90;;;;;;5117749;28;20040;-74
2023/01/17 03:07:55;;;;;;;11.18;6.68;;;4.80;99.90;;;;;;5117669;28;20127;-74
2023/01/17 03:10:22;;;;;;;11.77;5.50;;;4.70;99.90;;;;;;5117238;28;20487;-73
2023/01/17 03:12:48;;;;;;;7.07;6.30;;;4.40;99.90;;;;;;5117123;27;20047;-74
2023/01/17 03:15:16;;;;;;;19.05;6.38;;;4.30;99.90;;;;;;5117392;28;20119;-74
2023/01/17 03:17:47;;;;;;;13.95;6.22;;;4.30;99.90;;;;;;5117376;28;20043;-74
2023/01/17 03:20:13;;;;;;;6.50;4.93;;;4.30;99.90;;;;;;5117243;28;20043;-75
2023/01/17 03:22:38;;;;;;;12.45;4.18;;;4.30;99.90;;;;;;5117028;28;20059;-74
2023/01/17 03:25:05;;;;;;;7.85;4.50;;;4.20;99.90;;;;;;5117315;28;20046;-73
2023/01/17 03:27:31;;;;;;;11.43;4.72;;;4.20;99.90;;;;;;5117187;28;20040;-74
2023/01/17 03:29:56;;;;;;;16.23;6.65;;;4.20;99.90;;;;;;5117214;28;20036;-74
2023/01/17 03:32:22;;;;;;;20.60;5.95;;;4.30;99.90;;;;;;5117280;28;20036;-74
2023/01/17 03:34:48;;;;;;;9.70;5.63;;;4.40;99.90;;;;;;5117360;28;20328;-74
2023/01/17 03:37:14;;;;;;;5.13;4.32;;;4.50;99.90;;;;;;5117470;28;20059;-74
2023/01/17 03:39:39;;;;;;;9.52;4.82;;;4.40;99.90;;;;;;5117023;28;20363;-74
2023/01/17 03:42:05;;;;;;;11.55;4.90;;;4.30;99.90;;;;;;5117204;28;20044;-73
2023/01/17 03:44:32;;;;;;;11.20;4.97;;;4.20;99.90;;;;;;5116774;28;20067;-74
2023/01/17 03:46:59;;;;;;;13.07;5.38;;;4.20;99.90;;;;;;5117242;28;20040;-74
2023/01/17 03:49:25;;;;;;;10.13;4.60;;;4.20;99.90;;;;;;5117195;28;20072;-74
2023/01/17 03:51:50;;;;;;;12.35;4.60;;;4.20;99.90;;;;;;5117142;28;20071;-74
2023/01/17 03:54:16;;;;;;;7.18;4.70;;;4.10;99.90;;;;;;5118355;28;20040;-74
2023/01/17 03:56:42;;;;;;;9.10;4.63;;;4.00;99.90;;;;;;5121011;28;20075;-74
2023/01/17 03:59:07;;;;;;;11.93;4.10;;;4.10;99.90;;;;;;5121385;28;20050;-74
2023/01/17 04:01:33;;;;;;;9.95;4.25;;;4.10;99.90;;;;;;5121174;28;20416;-74
2023/01/17 04:03:59;;;;;;;11.13;4.00;;;4.20;99.90;;;;;;5121198;28;20340;-74
2023/01/17 04:06:24;;;;;;;7.05;3.88;;;4.30;99.90;;;;;;5121113;28;20035;-74
2023/01/17 04:08:50;;;;;;;8.05;2.90;;;4.20;99.90;;;;;;5121110;27;20316;-74
2023/01/17 04:11:15;;;;;;;8.82;3.10;;;4.20;99.90;;;;;;5121017;28;20482;-74
2023/01/17 04:13:41;;;;;;;8.63;2.72;;;4.20;99.90;;;;;;5120678;28;20494;-74
2023/01/17 04:16:12;;;;;;;11.15;4.15;;;4.30;99.90;;;;;;5120962;28;20045;-74
2023/01/17 04:18:37;;;;;;;6.85;2.97;;;4.30;99.90;;;;;;5121051;28;20031;-74
2023/01/17 04:21:03;;;;;;;9.63;2.90;;;4.40;99.90;;;;;;5120496;28;20417;-74
2023/01/17 04:23:29;;;;;;;9.48;2.75;;;4.40;99.90;;;;;;5120496;28;20058;-73
2023/01/17 04:25:55;;;;;;;9.40;2.47;;;4.30;99.90;;;;;;5120529;28;20042;-74
2023/01/17 04:28:20;;;;;;;7.93;3.30;;;4.20;99.90;;;;;;5120383;28;20088;-74
2023/01/17 04:30:46;;;;;;;9.45;2.20;;;4.20;99.90;;;;;;5120695;28;20035;-74
2023/01/17 04:33:12;;;;;;;9.98;2.60;;;4.10;99.90;;;;;;5119295;28;20089;-74
2023/01/17 04:35:37;;;;;;;6.63;3.33;;;4.20;99.90;;;;;;5120321;28;20028;-74
2023/01/17 04:38:03;;;;;;;7.80;3.85;;;4.10;99.90;;;;;;5120501;28;20100;-74
2023/01/17 04:40:29;;;;;;;8.00;4.18;;;4.10;99.90;;;;;;5120454;28;20138;-74
2023/01/17 04:42:58;;;;;;;13.23;5.25;;;4.00;99.90;;;;;;5101642;28;20486;-74
2023/01/17 04:45:24;;;;;;;13.45;4.18;;;3.80;99.90;;;;;;5120843;28;20084;-74
2023/01/17 04:47:50;;;;;;;5.82;3.13;;;3.70;99.90;;;;;;5120028;28;20031;-74
2023/01/17 04:50:17;;;;;;;8.55;3.47;;;3.80;99.90;;;;;;5120313;28;20073;-74
2023/01/17 04:52:42;;;;;;;12.23;3.45;;;3.90;99.90;;;;;;5119225;28;20531;-74
2023/01/17 04:55:08;;;;;;;6.63;2.63;;;4.00;99.90;;;;;;5120226;28;20079;-74
2023/01/17 04:57:34;;;;;;;12.00;2.20;;;3.90;99.90;;;;;;5118963;28;20088;-74
2023/01/17 05:00:00;;;;;;;9.98;2.88;;;3.90;99.90;;;;;;5120100;28;20331;-74
2023/01/17 05:02:25;;;;;;;7.45;2.42;;;3.80;99.90;;;;;;5119925;28;20047;-74
2023/01/17 05:04:51;;;;;;;12.70;1.83;;;3.90;99.90;;;;;;5119936;28;20036;-74
2023/01/17 05:07:17;;;;;;;8.88;1.65;;;3.90;99.90;;;;;;5119251;28;20044;-74
2023/01/17 05:09:42;;;;;;;10.52;1.10;;;3.80;99.90;;;;;;5119892;28;20126;-74
2023/01/17 05:12:08;;;;;;;7.75;1.48;;;3.80;99.90;;;;;;5119842;28;20107;-74
2023/01/17 05:14:34;;;;;;;10.70;1.40;;;3.70;99.90;;;;;;5119485;28;20031;-74
2023/01/17 05:17:01;;;;;;;11.45;1.48;;;3.70;99.90;;;;;;5119494;28;20050;-74
2023/01/17 05:19:27;;;;;;;4.88;1.30;;;3.70;99.90;;;;;;5119739;28;20035;-74
2023/01/17 05:21:53;;;;;;;8.07;1.55;;;3.70;99.90;;;;;;5119121;28;20051;-74
2023/01/17 05:24:19;;;;;;;6.85;1.40;;;3.70;99.90;;;;;;5119684;28;20054;-74
2023/01/17 05:26:53;;;;;;;12.30;1.80;;;3.70;99.90;;;;;;5119246;28;20092;-74
2023/01/17 05:29:19;;;;;;;7.03;1.58;;;3.60;99.90;;;;;;5119307;28;20039;-74
2023/01/17 05:31:45;;;;;;;5.40;1.10;;;3.70;99.90;;;;;;5119181;28;20345;-74
2023/01/17 05:34:11;;;;;;;6.65;1.50;;;3.60;99.90;;;;;;5119429;27;20040;-74
2023/01/17 05:36:36;;;;;;;4.07;1.08;;;3.50;99.90;;;;;;5119397;28;20093;-74
2023/01/17 05:39:02;;;;;;;8.77;1.55;;;3.50;99.90;;;;;;5118075;28;20057;-74
2023/01/17 05:41:27;;;;;;;6.40;1.25;;;3.50;99.90;;;;;;5119215;28;20095;-74
2023/01/17 05:43:53;;;;;;;6.22;1.20;;;3.50;99.90;;;;;;5117604;28;20071;-74
2023/01/17 05:46:19;;;;;;;5.18;1.40;;;3.40;99.90;;;;;;5118194;28;20035;-74
2023/01/17 05:48:44;;;;;;;4.80;1.30;;;3.50;99.90;;;;;;5117825;28;20039;-74
2023/01/17 05:51:10;;;;;;;8.35;1.52;;;3.60;99.90;;;;;;5119100;28;20035;-74
2023/01/17 05:53:36;;;;;;;8.55;1.98;;;3.60;99.90;;;;;;5117733;28;20040;-74
2023/01/17 05:56:01;;;;;;;7.53;1.55;;;3.60;99.90;;;;;;5100693;28;20053;-74
2023/01/17 05:58:27;;;;;;;9.13;2.60;;;3.60;99.90;;;;;;5118992;28;20042;-74
2023/01/17 06:00:54;;;;;;;14.57;2.50;;;3.60;99.90;;;;;;5118908;28;20089;-74
2023/01/17 06:03:20;;;;;;;10.20;2.25;;;3.50;99.90;;;;;;5118797;28;20358;-74
2023/01/17 06:05:46;;;;;;;10.80;2.47;;;3.50;99.90;;;;;;5118791;28;20035;-75
2023/01/17 06:08:12;;;;;;;8.90;1.90;;;3.50;99.90;;;;;;5118803;28;20043;-74
2023/01/17 06:10:38;;;;;;;8.20;1.80;;;3.40;99.90;;;;;;5118751;28;20054;-74
2023/01/17 06:13:09;;;;;;;11.20;1.95;;;3.30;99.90;;;;;;5118323;28;20051;-75
2023/01/17 06:15:36;;;;;;;8.35;1.95;;;3.30;99.90;;;;;;5118617;28;20073;-74
2023/01/17 06:18:10;;;;;;;4.80;1.90;;;3.30;99.90;;;;;;5118578;28;20039;-74
2023/01/17 06:20:36;;;;;;;5.15;1.70;;;3.30;99.90;;;;;;5117598;28;20089;-74
2023/01/17 06:23:04;;;;;;;6.65;1.60;;;3.20;99.90;;;;;;5118034;28;20131;-75
2023/01/17 06:25:36;;;;;;;8.85;2.15;;;3.20;99.90;;;;;;5118082;28;20046;-74
2023/01/17 06:28:02;;;;;;;6.32;2.70;;;3.10;99.90;;;;;;5118772;28;20059;-74
2023/01/17 06:30:27;;;;;;;7.07;2.15;;;3.20;99.90;;;;;;5117376;28;20035;-74
2023/01/17 06:32:54;;;;;;;8.63;2.03;;;3.20;99.90;;;;;;5118268;28;20485;-75
2023/01/17 06:35:21;;;;;;;12.95;2.22;;;3.20;99.90;;;;;;5117979;28;20309;-74
2023/01/17 06:37:51;;;;;;;11.05;2.72;;;3.20;99.90;;;;;;5118207;28;20051;-75
2023/01/17 06:40:17;;;;;;;7.63;2.70;;;3.40;99.90;;;;;;5118136;28;20126;-74
2023/01/17 06:42:43;;;;;;;7.68;3.10;;;3.20;99.90;;;;;;5118047;28;20062;-74
2023/01/17 06:45:09;;;;;;;4.15;3.50;;;3.40;99.90;;;;;;5117731;28;20425;-74
2023/01/17 06:47:39;;;;;;;10.38;3.13;;;3.40;99.90;;;;;;5117729;28;20397;-74
2023/01/17 06:50:06;;;;;;;11.90;3.40;;;3.40;99.90;;;;;;5117975;28;20079;-74
2023/01/17 06:52:32;;;;;;;9.05;3.25;;;3.40;99.90;;;;;;5117991;28;20035;-74
2023/01/17 06:54:57;;;;;;;4.10;3.42;;;3.20;99.90;;;;;;5117586;28;20035;-74
2023/01/17 06:57:23;;;;;;;6.00;3.45;;;3.20;99.90;;;;;;5116950;28;20038;-74
2023/01/17 06:59:49;;;;;;;10.32;3.35;;;3.20;99.90;;;;;;5117901;28;20042;-74
2023/01/17 07:02:14;;;;;;;4.85;2.08;;;3.30;99.90;;;;;;5117626;28;20070;-76
2023/01/17 07:04:40;;;;;;;6.78;2.10;;;3.10;99.90;;;;;;5116448;28;20039;-74
2023/01/17 07:07:06;;;;;;;5.57;2.20;;;2.90;99.90;;;;;;5117828;28;20095;-74
2023/01/17 07:09:31;;;;;;;8.52;1.90;;;2.90;99.90;;;;;;5117617;28;20044;-75
2023/01/17 07:12:00;;;;;;;5.30;2.00;;;2.70;99.90;;;;;;5117315;28;20500;-74
2023/01/17 07:14:27;;;;;;;7.50;1.90;;;2.70;99.90;;;;;;5116880;28;20443;-74
2023/01/17 07:16:54;;;;;;;5.82;2.00;;;2.80;99.90;;;;;;5117251;28;20504;-75
2023/01/17 07:19:19;;;;;;;6.20;1.52;;;2.70;99.90;;;;;;5117514;28;20040;-75
2023/01/17 07:21:45;;;;;;;4.65;1.60;;;2.60;99.90;;;;;;5117256;28;20093;-75
2023/01/17 07:24:11;;;;;;;7.65;1.70;;;2.70;99.90;;;;;;5117474;28;20051;-75
2023/01/17 07:26:39;;;;;;;3.33;1.60;;;2.70;99.90;;;;;;5117478;28;20035;-74
2023/01/17 07:29:04;;;;;;;2.72;2.00;;;2.80;99.90;;;;;;5116553;28;20109;-75
2023/01/17 07:31:34;;;;;;;9.15;2.05;;;2.70;99.90;;;;;;5116286;28;20085;-75
2023/01/17 07:34:00;;;;;;;2.75;2.10;;;2.70;99.90;;;;;;5117132;28;20055;-75
2023/01/17 07:36:25;;;;;;;5.28;2.30;;;2.90;99.90;;;;;;5116466;28;20071;-75
2023/01/17 07:38:51;;;;;;;5.50;2.00;;;2.90;99.90;;;;;;5116473;28;20395;-75
2023/01/17 07:41:17;;;;;;;4.72;1.80;;;2.90;99.90;;;;;;5117178;28;20043;-74
2023/01/17 07:43:42;;;;;;;7.30;1.95;;;2.90;99.90;;;;;;5116918;28;20040;-75
2023/01/17 07:46:08;;;;;;;4.10;1.70;;;2.90;99.90;;;;;;5117278;28;20035;-75
2023/01/17 07:48:34;;;;;;;4.43;2.00;;;3.00;99.90;;;;;;5116216;28;20031;-75
2023/01/17 07:51:00;;;;;;;8.85;2.60;;;2.80;99.90;;;;;;5117082;28;20046;-75
2023/01/17 07:53:27;;;;;;;5.50;2.20;;;2.80;99.90;;;;;;5117320;28;20168;-75
2023/01/17 07:55:54;;;;;;;13.70;2.60;;;2.90;99.90;;;;;;5116913;28;20444;-75
2023/01/17 07:58:20;;;;;;;6.07;1.98;;;2.80;99.90;;;;;;5117176;28;20044;-75
2023/01/17 08:00:46;;;;;;;4.68;1.70;;;2.70;99.90;;;;;;5117179;28;20054;-69
2023/01/17 08:03:14;;;;;;;4.45;1.73;;;2.60;99.90;;;;;;5116697;28;20039;-68
2023/01/17 08:05:52;;;;;;;5.57;1.73;;;2.60;99.90;;;;;;5117046;28;20036;-71
2023/01/17 08:08:18;;;;;;;7.38;1.90;;;2.60;99.90;;;;;;5116761;28;20027;-71
2023/01/17 08:10:44;;;;;;;7.10;1.83;;;2.80;99.90;;;;;;5117300;28;20126;-71
2023/01/17 08:13:09;;;;;;;8.45;2.40;;;2.80;99.90;;;;;;5116531;28;20122;-71
2023/01/17 08:15:35;;;;;;;4.13;2.40;;;2.90;99.90;;;;;;5116989;28;20078;-72
2023/01/17 08:18:01;;;;;;;5.10;2.20;;;3.00;99.90;;;;;;5116651;28;20088;-71
2023/01/17 08:20:26;;;;;;;5.38;1.90;;;3.00;99.90;;;;;;5116913;28;20119;-71
2023/01/17 08:22:54;;;;;;;6.18;1.80;;;3.10;99.90;;;;;;5098386;28;20048;-71
2023/01/17 08:25:20;;;;;;;4.32;2.10;;;3.00;99.90;;;;;;5117362;28;20046;-71
2023/01/17 08:27:46;;;;;;;3.85;1.90;;;3.10;99.90;;;;;;5116871;28;20074;-71
2023/01/17 08:30:12;;;;;;;5.22;1.90;;;3.00;99.90;;;;;;5116506;28;20032;-70
2023/01/17 08:32:39;;;;;;;6.55;2.33;;;3.00;99.90;;;;;;5116822;28;20039;-71
2023/01/17 08:35:07;;;;;;;5.32;2.25;;;3.10;99.90;;;;;;5116807;28;20047;-71
2023/01/17 08:37:32;;;;;;;5.45;2.10;;;2.90;99.90;;;;;;5116731;28;20044;-71
2023/01/17 08:39:58;;;;;;;8.75;2.30;;;3.00;99.90;;;;;;5116742;28;20066;-71
2023/01/17 08:42:24;;;;;;;7.80;3.50;;;3.10;99.90;;;;;;5119472;28;20036;-71
2023/01/17 08:44:49;;;;;;;6.38;3.50;;;3.20;99.90;;;;;;5120059;28;20047;-71
2023/01/17 08:47:15;;;;;;;3.47;3.10;;;3.50;99.90;;;;;;5120369;28;20361;-71
2023/01/17 08:49:42;;;;;;;5.88;2.95;;;3.60;99.90;;;;;;5119999;28;20133;-71
2023/01/17 08:52:08;;;;;;;5.43;3.58;;;3.70;99.90;;;;;;5120227;28;20089;-71
2023/01/17 08:54:33;;;;;;;5.82;3.25;;;3.60;99.90;;;;;;5119160;28;20047;-71
2023/01/17 08:56:59;;;;;;;8.07;3.20;;;3.70;99.90;;;;;;5120197;28;20493;-71
2023/01/17 08:59:25;;;;;;;3.70;3.15;;;3.80;99.90;;;;;;5119916;28;20039;-71
2023/01/17 09:01:53;;;;;;;7.70;4.20;;;3.80;99.90;;;;;;5119750;28;20036;-72
2023/01/17 09:04:18;;;;;;;5.82;2.83;;;3.80;99.90;;;;;;5118748;28;20043;-71
2023/01/17 09:06:46;;;;;;;7.95;2.40;;;3.80;99.90;;;;;;5119968;28;20038;-71
2023/01/17 09:09:12;;;;;;;7.45;2.90;;;3.50;99.90;;;;;;5119656;28;20440;-71
2023/01/17 09:11:38;;;;;;;5.25;2.40;;;3.60;99.90;;;;;;5118518;28;20054;-71
2023/01/17 09:14:04;;;;;;;3.90;2.33;;;3.70;99.90;;;;;;5119227;28;20118;-71
2023/01/17 09:16:31;;;;;;;5.60;1.90;;;3.60;99.90;;;;;;5119277;28;20048;-71
2023/01/17 09:18:57;;;;;;;7.72;2.17;;;3.50;99.90;;;;;;5119655;28;20089;-71
2023/01/17 09:21:24;;;;;;;6.75;1.65;;;3.50;99.90;;;;;;5118989;28;20039;-72
2023/01/17 09:23:54;;;;;;;4.47;1.80;;;3.40;99.90;;;;;;5112123;28;20341;-71
2023/01/17 09:26:25;;;;;;;9.70;1.80;;;3.50;99.90;;;;;;5097746;28;20086;-71
2023/01/17 09:28:57;;;;;;;4.38;1.70;;;3.60;99.90;;;;;;5099198;28;20079;-71
2023/01/17 09:31:27;;;;;;;8.90;2.00;;;3.70;99.90;;;;;;5114710;28;20040;-71
2023/01/17 09:33:53;;;;;;;5.57;2.10;;;3.70;99.90;;;;;;5098784;28;20437;-71
2023/01/17 09:36:20;;;;;;;4.38;1.45;;;3.60;99.90;;;;;;5098657;28;20122;-71
2023/01/17 09:38:46;;;;;;;6.47;1.40;;;3.60;99.90;;;;;;5098971;28;20081;-70
2023/01/17 09:41:32;;;;;;;8.55;1.33;;;3.70;99.90;;;;;;5098425;28;20418;-77
2023/01/17 09:44:10;;;;;;;7.93;1.98;;;3.80;99.90;;;;;;5101862;28;20032;-71
2023/01/17 09:46:43;;;;;;;4.10;1.20;;;3.80;99.90;;;;;;5119036;28;20532;-70
2023/01/17 09:49:22;;;;;;;10.55;1.30;;;3.80;99.90;;;;;;5117488;28;20066;-70
2023/01/17 09:51:48;;;;;;;6.43;1.10;;;3.90;99.90;;;;;;5117609;28;20048;-70
2023/01/17 09:54:26;;;;;;;2.60;1.10;;;4.00;99.90;;;;;;5118771;28;20336;-70
2023/01/17 09:57:22;;;;;;;5.78;1.00;;;4.00;99.90;;;;;;5107470;28;20341;-70
2023/01/17 10:00:05;;;;;;;6.40;1.20;;;4.10;99.90;;;;;;5087816;28;20052;-70
2023/01/17 10:02:39;;;;;;;5.00;1.13;;;4.20;99.90;;;;;;5103636;28;20040;-73
2023/01/17 10:05:15;;;;;;;7.50;1.35;;;4.20;99.90;;;;;;5118362;28;20067;-70
2023/01/17 10:07:46;;;;;;;3.60;1.30;;;4.30;99.90;;;;;;5118637;28;20036;-70
2023/01/17 10:11:16;;;;;;;9.55;1.40;;;4.40;99.90;;;;;;5118510;27;20039;-70
2023/01/17 10:14:02;;;;;;;4.32;1.40;;;4.60;99.90;;;;;;5016614;28;20043;-70
2023/01/17 10:16:36;;;;;;;5.85;1.48;;;4.80;99.90;;;;;;5097808;28;20081;-70
2023/01/17 10:19:26;;;;;;;2.45;1.00;;;4.80;99.90;;;;;;5098010;28;20028;-70
2023/01/17 10:21:57;;;;;;;3.75;0.90;;;4.80;99.90;;;;;;5105730;28;20056;-70
2023/01/17 10:24:45;;;;;;;6.70;1.30;;;4.80;99.90;;;;;;5111964;28;20202;-70
2023/01/17 10:27:57;;;;;;;3.95;0.65;;;4.90;99.90;;;;;;5114729;28;20039;-70
2023/01/17 10:30:30;;;;;;;3.33;1.00;;;5.00;99.90;;;;;;5089535;28;20128;-70
2023/01/17 10:32:59;;;;;;;6.18;0.95;;;5.10;99.90;;;;;;5075668;28;20052;-70
2023/01/17 10:35:30;;;;;;;2.45;0.70;;;5.00;99.90;;;;;;5088494;28;20055;-70
2023/01/17 10:37:59;;;;;;;6.00;1.05;;;5.10;99.90;;;;;;5097442;28;20100;-70
2023/01/17 10:40:43;;;;;;;2.35;0.80;;;5.20;99.90;;;;;;5097397;28;20044;-70
2023/01/17 10:43:16;;;;;;;8.38;0.98;;;5.30;99.90;;;;;;5097487;28;20044;-70
2023/01/17 10:45:53;;;;;;;4.53;0.90;;;5.50;99.90;;;;;;5099889;28;20089;-71
2023/01/17 10:48:54;;;;;;;;;;;5.80;99.90;;;;;;5096876;28;20330;-70
2023/01/17 10:51:50;;;;;;;3.67;0.55;;;6.00;99.90;;;;;;5034038;28;19924;-70
2023/01/17 10:54:43;;;;;;;4.27;0.70;;;5.90;99.90;;;;;;5097471;28;20460;-70
2023/01/17 10:57:22;;;;;;;5.95;0.68;;;5.70;99.90;;;;;;5097561;28;20105;-70
2023/01/17 10:59:49;;;;;;;3.53;0.57;;;5.60;99.90;;;;;;5097512;28;20036;-71
2023/01/17 11:02:26;;;;;;;6.50;0.68;;;5.60;99.90;;;;;;5097328;28;20101;-70
2023/01/17 11:04:54;;;;;;;6.13;0.90;;;5.70;99.90;;;;;;5096417;28;20447;-71
2023/01/17 11:07:22;;;;;;;2.08;0.63;;;5.80;99.90;;;;;;5097103;28;20048;-71
2023/01/17 11:09:50;;;;;;;2.67;1.00;;;6.10;99.90;;;;;;5097295;28;20036;-72
2023/01/17 11:12:23;;;;;;;6.35;0.85;;;6.20;99.90;;;;;;5097276;28;20118;-73
2023/01/17 11:14:58;;;;;;;5.82;0.90;;;6.10;99.90;;;;;;5096843;28;20105;-72
2023/01/17 11:17:26;;;;;;;3.03;1.00;;;6.00;99.90;;;;;;5097226;28;20047;-78
2023/01/17 11:19:53;;;;;;;7.00;1.83;;;6.00;99.90;;;;;;5096004;28;20115;-69
2023/01/17 11:22:19;;;;;;;3.90;1.35;;;5.80;99.90;;;;;;5096572;28;20465;-69
2023/01/17 11:24:47;;;;;;;8.93;1.38;;;5.90;99.90;;;;;;5097090;28;20044;-69
2023/01/17 11:27:25;;;;;;;3.17;1.20;;;6.00;99.90;;;;;;5097062;28;20036;-69
2023/01/17 11:30:09;;;;;;;8.00;1.95;;;5.60;99.90;;;;;;5097292;28;20369;-70
2023/01/17 11:32:35;;;;;;;3.80;1.75;;;5.80;99.90;;;;;;5097005;28;20141;-69
2023/01/17 11:35:11;;;;;;;6.75;2.00;;;6.20;99.90;;;;;;5096712;28;20044;-71
2023/01/17 11:37:37;;;;;;;5.65;2.00;;;6.60;99.90;;;;;;5095681;28;20126;-71
2023/01/17 11:40:34;;;;;;;4.07;1.70;;;6.90;99.90;;;;;;5096642;28;20040;-70
2023/01/17 11:43:05;;;;;;;5.60;1.20;;;6.70;99.90;;;;;;5096771;28;20072;-69
2023/01/17 11:45:34;;;;;;;7.93;1.50;;;6.70;99.90;;;;;;5095212;28;20044;-69
2023/01/17 11:48:11;;;;;;;4.10;1.60;;;6.90;99.90;;;;;;5096842;28;20036;-68
2023/01/17 11:51:01;;;;;;;3.38;1.20;;;7.30;99.90;;;;;;5096830;28;20039;-68
2023/01/17 11:53:35;;;;;;;4.45;1.20;;;7.40;99.90;;;;;;5091223;28;20059;-68
2023/01/17 11:56:01;;;;;;;6.72;1.00;;;7.50;99.90;;;;;;5096849;28;20036;-67
2023/01/17 11:58:27;;;;;;;2.90;0.90;;;7.90;99.90;;;;;;5096746;28;20048;-69
2023/01/17 12:01:34;;;;;;;4.75;1.10;;;8.00;99.40;;;;;;5096726;28;20170;-68
2023/01/17 12:04:23;;;;;;;5.38;1.27;;;7.40;99.70;;;;;;5054342;28;20045;-72
2023/01/17 12:07:30;;;;;;;7.75;0.93;;;7.50;99.90;;;;;;5093946;28;20429;-69
2023/01/17 12:10:38;;;;;;;4.95;1.25;;;7.10;99.70;;;;;;5075898;28;20048;-69
2023/01/17 12:19:33;;;;;;;8.30;1.13;;;6.90;99.60;;;;;;5100388;28;20048;-69
2023/01/17 12:22:22;;;;;;;3.95;0.60;;;6.90;99.10;;;;;;5098829;28;20353;-73
2023/01/17 12:25:24;;;;;;;10.57;0.80;;;6.90;99.30;;;;;;5098958;28;20363;-73
2023/01/17 12:28:10;;;;;;;4.03;0.80;;;6.90;99.60;;;;;;5100035;28;20040;-68
2023/01/17 12:30:38;;;;;;;7.40;0.80;;;7.20;99.80;;;;;;5099281;28;20071;-67
2023/01/17 12:33:22;;;;;;;2.75;0.50;;;7.30;99.20;;;;;;5099889;28;20433;-69
2023/01/17 12:35:57;;;;;;;5.75;0.80;;;7.10;98.90;;;;;;5099940;28;20055;-69
2023/01/17 12:38:37;;;;;;;5.50;1.00;;;7.40;99.50;;;;;;5099643;28;20047;-69
2023/01/17 12:41:14;;;;;;;5.13;0.90;;;7.30;98.80;;;;;;5099855;28;20488;-69
2023/01/17 12:43:41;;;;;;;4.28;0.60;;;7.50;99.70;;;;;;5097100;28;20075;-69
2023/01/17 12:46:22;;;;;;;6.50;1.33;;;7.50;98.60;;;;;;5102084;27;20502;-69
2023/01/17 12:49:12;;;;;;;2.45;0.70;;;7.20;99.00;;;;;;5101541;28;20054;-69
2023/01/17 12:51:42;;;;;;;6.15;1.08;;;6.80;99.20;;;;;;5098617;28;20054;-69
2023/01/17 12:54:34;;;;;;;2.85;0.52;;;6.90;99.50;;;;;;5106566;28;20072;-69
2023/01/17 12:57:30;;;;;;;6.55;0.80;;;7.30;99.00;;;;;;5118489;28;20042;-69
2023/01/17 13:00:25;;;;;;;5.68;0.60;;;7.20;98.60;;;;;;5097916;28;20123;-69
2023/01/17 13:03:33;;;;;;;6.95;0.90;;;7.10;99.00;;;;;;5110583;28;20043;-67
2023/01/17 13:06:01;;;;;;;4.15;0.80;;;7.10;98.40;;;;;;5113625;28;20040;-68
2023/01/17 13:08:41;;;;;;;6.55;0.50;;;6.50;98.40;;;;;;5117971;28;20039;-70
2023/01/17 13:11:28;;;;;;;2.00;0.70;;;6.00;98.70;;;;;;5119541;28;20035;-69
2023/01/17 13:13:56;;;;;;;1.25;0.30;;;5.70;98.90;;;;;;5119575;28;20047;-70
2023/01/17 13:16:53;;;;;;;4.90;0.40;;;5.70;99.20;;;;;;5119506;28;20340;-71
2023/01/17 13:19:50;;;;;;;6.88;1.58;;;5.60;98.80;;;;;;5108555;27;20055;-71
2023/01/17 13:22:18;;;;;;;6.15;0.40;;;6.00;98.70;;;;;;5119347;28;20341;-70
2023/01/17 13:25:02;;;;;;;5.97;0.50;;;6.60;98.30;;;;;;5119512;28;20047;-68
2023/01/17 13:27:37;;;;;;;1.70;0.20;;;7.50;97.80;;;;;;5117463;28;20046;-70
2023/01/17 13:30:30;;;;;;;2.33;0.20;;;7.90;96.80;;;;;;5119404;28;20039;-68
2023/01/17 13:33:21;;;;;;;3.85;0.38;;;8.60;96.80;;;;;;5118308;28;20043;-72
2023/01/17 13:36:05;;;;;;;5.15;0.60;;;8.40;95.40;;;;;;5117948;28;20039;-71
2023/01/17 13:38:41;;;;;;;9.90;1.13;;;8.00;96.20;;;;;;5119254;28;20044;-71
2023/01/17 13:41:10;;;;;;;3.50;0.30;;;7.70;96.50;;;;;;5119223;28;20043;-69
2023/01/17 13:44:20;;;;;;;3.88;0.40;;;8.10;96.60;;;;;;5119057;28;20051;-69
2023/01/17 13:46:50;;;;;;;6.82;0.30;;;8.80;96.40;;;;;;5117930;28;20359;-70
2023/01/17 13:49:32;;;;;;;7.72;0.45;;;8.30;96.00;;;;;;5112421;28;20036;-73
2023/01/17 13:52:25;;;;;;;4.50;0.90;;;7.90;96.50;;;;;;5109335;28;20035;-70
2023/01/17 13:55:00;;;;;;;2.00;0.22;;;7.40;96.50;;;;;;5097132;28;20048;-69
2023/01/17 13:57:27;;;;;;;2.95;0.45;;;7.00;97.30;;;;;;5110662;28;20039;-70
2023/01/17 13:59:54;;;;;;;3.30;0.20;;;6.90;97.40;;;;;;5102086;28;20083;-70
2023/01/17 14:02:47;;;;;;;8.20;0.80;;;7.10;97.60;;;;;;5098511;28;20044;-69
2023/01/17 14:05:20;;;;;;;6.80;0.47;;;6.90;97.30;;;;;;5096830;28;20097;-69
2023/01/17 14:07:51;;;;;;;3.78;0.60;;;6.70;97.30;;;;;;5098238;28;20042;-69
2023/01/17 14:10:36;;;;;;;7.35;0.30;;;6.50;97.50;;;;;;5097660;28;20307;-70
2023/01/17 14:13:04;;;;;;;3.30;0.43;;;6.30;97.50;;;;;;5096741;28;20433;-72
2023/01/17 14:15:48;;;;;;;4.32;0.45;;;6.10;97.70;;;;;;5107172;28;20043;-70
2023/01/17 14:18:31;;;;;;;2.67;0.40;;;6.10;97.50;;;;;;5115923;28;20036;-72
2023/01/17 14:21:18;;;;;;;3.50;0.38;;;5.90;97.60;;;;;;5097564;28;20032;-71
2023/01/17 14:24:02;;;;;;;0.47;0.20;;;6.00;98.00;;;;;;5097230;28;20060;-69
2023/01/17 14:26:53;;;;;;;2.63;0.40;;;6.00;97.40;;;;;;5096448;28;20400;-69
2023/01/17 14:29:44;;;;;;;1.15;0.10;;;6.00;97.80;;;;;;5097786;28;20032;-70
2023/01/17 14:32:16;;;;;;;4.40;0.40;;;6.00;97.60;;;;;;5097601;28;20051;-71
2023/01/17 14:34:44;;;;;;;2.15;0.35;;;5.80;97.60;;;;;;5097548;28;20044;-71
2023/01/17 14:37:36;;;;;;;1.63;0.20;;;5.60;97.50;;;;;;5097823;28;20429;-71
2023/01/17 14:40:17;;;;;;;1.83;0.20;;;5.50;97.40;;;;;;5096712;28;20115;-71
2023/01/17 14:42:44;;;;;;;3.15;0.20;;;5.50;97.60;;;;;;5097335;28;20371;-71
2023/01/17 14:45:15;;;;;;;2.45;0.40;;;5.40;97.40;;;;;;5096872;28;20044;-69
2023/01/17 14:47:44;;;;;;;2.80;0.30;;;5.60;97.60;;;;;;5097009;28;20040;-69
2023/01/17 14:50:28;;;;;;;1.13;0.30;;;5.50;97.90;;;;;;5097180;28;20119;-70
2023/01/17 14:53:14;;;;;;;5.55;0.35;;;5.50;97.70;;;;;;5097410;28;20362;-72